Port Stanley — V7EE9 — position and weather

sailwx.info

Track history (hours):
 
Tides and Currents Weather Stations Pressure Air Temp Water Temp Dewpoint Dewpoint Depression Visibility Wind Speed Wind Dir Waves Ship Positions

Port Stanley

Last reported at 2015-Apr-15 09:23 UTC. Time now 2015-Apr-18 07:18 UTC.
Position N 01°10' E 103°47'.

Length 183 m; draft 8.4 m.

Type: Ship. MMSI: 538090299.

Date/timePositionNaut miles runAvg speedWind from/ knotsBaromVisibWave heightAir tempDewpointWater temp
2015-Apr-15 09:23N 01°10' E 103°47'1113.3
2015-Apr-15 08:33N 01°15' E 103°57'38 0.8
2015-Apr-13 11:26N 01°34' E 104°31'0 0.0
2015-Apr-13 10:32N 01°34' E 104°31'0 0.0
2015-Apr-13 09:32N 01°34' E 104°31'0 0.0
2015-Apr-13 08:19N 01°34' E 104°31'25 1.2
2015-Apr-12 10:33N 01°16' E 104°13'1010.2
2015-Apr-12 09:32N 01°17' E 104°02'2 1.6
2015-Apr-12 08:18N 01°17' E 104°00'0 0.0
2015-Apr-12 07:17N 01°18' E 104°00'0 0.0
2015-Apr-12 06:30N 01°18' E 104°00'0 0.0
2015-Apr-12 03:29N 01°17' E 104°00'0 0.1
2015-Apr-12 02:17N 01°18' E 104°00'0 0.0
2015-Apr-12 01:29N 01°18' E 104°00'0 0.0
2015-Apr-12 00:06N 01°18' E 104°00'0 0.0
2015-Apr-11 23:18N 01°18' E 104°00'0 0.0
2015-Apr-11 21:30N 01°18' E 104°00'0 0.2
2015-Apr-11 20:28N 01°18' E 104°00'0 0.0
2015-Apr-11 18:30N 01°18' E 104°00'0 0.0
2015-Apr-11 17:24N 01°18' E 104°00'0 0.0
2015-Apr-11 16:30N 01°17' E 104°00'0 0.0
2015-Apr-11 15:10N 01°17' E 104°00'0 0.0
2015-Apr-11 14:19N 01°17' E 104°00'0 0.0
2015-Apr-11 13:17N 01°17' E 104°00'0 0.0
2015-Apr-11 12:22N 01°17' E 104°00'0 0.6
2015-Apr-11 11:32N 01°17' E 103°60'2 1.9
2015-Apr-11 10:31N 01°16' E 103°59'8 8.2
2015-Apr-11 09:33N 01°17' E 104°07'  
Track history (hours):
 
Tides and Currents Weather Stations Pressure Air Temp Water Temp Dewpoint Dewpoint Depression Visibility Wind Speed Wind Dir Waves Ship Positions

Port Stanley

Last reported at 2015-Apr-15 09:23 UTC. Time now 2015-Apr-18 07:18 UTC.
Position N 01°10' E 103°47'.

Length 183 m; draft 8.4 m.

Type: Ship. MMSI: 538090299.

Date/timePositionNaut miles runAvg speedWind from/ knotsBaromVisibWave heightAir tempDewpointWater temp
2015-Apr-15 09:23N 01°10' E 103°47'1113.3
2015-Apr-15 08:33N 01°15' E 103°57'38 0.8
2015-Apr-13 11:26N 01°34' E 104°31'0 0.0
2015-Apr-13 10:32N 01°34' E 104°31'0 0.0
2015-Apr-13 09:32N 01°34' E 104°31'0 0.0
2015-Apr-13 08:19N 01°34' E 104°31'25 1.2
2015-Apr-12 10:33N 01°16' E 104°13'1010.2
2015-Apr-12 09:32N 01°17' E 104°02'2 1.6
2015-Apr-12 08:18N 01°17' E 104°00'0 0.0
2015-Apr-12 07:17N 01°18' E 104°00'0 0.0
2015-Apr-12 06:30N 01°18' E 104°00'0 0.0
2015-Apr-12 03:29N 01°17' E 104°00'0 0.1
2015-Apr-12 02:17N 01°18' E 104°00'0 0.0
2015-Apr-12 01:29N 01°18' E 104°00'0 0.0
2015-Apr-12 00:06N 01°18' E 104°00'0 0.0
2015-Apr-11 23:18N 01°18' E 104°00'0 0.0
2015-Apr-11 21:30N 01°18' E 104°00'0 0.2
2015-Apr-11 20:28N 01°18' E 104°00'0 0.0
2015-Apr-11 18:30N 01°18' E 104°00'0 0.0
2015-Apr-11 17:24N 01°18' E 104°00'0 0.0
2015-Apr-11 16:30N 01°17' E 104°00'0 0.0
2015-Apr-11 15:10N 01°17' E 104°00'0 0.0
2015-Apr-11 14:19N 01°17' E 104°00'0 0.0
2015-Apr-11 13:17N 01°17' E 104°00'0 0.0
2015-Apr-11 12:22N 01°17' E 104°00'0 0.6
2015-Apr-11 11:32N 01°17' E 103°60'2 1.9
2015-Apr-11 10:31N 01°16' E 103°59'8 8.2
2015-Apr-11 09:33N 01°17' E 104°07'  

Dump ship's entire track history